createdAt,value
2019-05-11T00:00:26.265Z,7.47
2019-05-11T00:02:56.859Z,8.87
2019-05-11T00:05:27.493Z,8.87
2019-05-11T00:08:01.081Z,11.23
2019-05-11T00:10:31.816Z,7.40
2019-05-11T00:13:02.795Z,12.63
2019-05-11T00:15:34.106Z,8.87
2019-05-11T00:18:04.720Z,9.90
2019-05-11T00:20:35.241Z,10.73
2019-05-11T00:23:05.894Z,10.57
2019-05-11T00:25:36.636Z,8.77
2019-05-11T00:28:07.409Z,9.17
2019-05-11T00:30:38.042Z,9.47
2019-05-11T00:33:08.790Z,11.77
2019-05-11T00:35:39.410Z,10.77
2019-05-11T00:38:09.964Z,10.37
2019-05-11T00:40:40.685Z,10.90
2019-05-11T00:43:11.787Z,12.33
2019-05-11T00:45:42.428Z,14.27
2019-05-11T00:48:14.032Z,12.77
2019-05-11T00:50:44.734Z,15.37
2019-05-11T00:53:15.871Z,15.27
2019-05-11T00:55:46.600Z,12.70
2019-05-11T00:58:17.288Z,11.73
2019-05-11T01:00:48.042Z,15.77
2019-05-11T01:03:18.685Z,10.87
2019-05-11T01:05:49.446Z,11.47
2019-05-11T01:08:20.057Z,9.40
2019-05-11T01:10:50.704Z,11.33
2019-05-11T01:13:21.330Z,13.77
2019-05-11T01:15:51.927Z,14.20
2019-05-11T01:18:22.544Z,9.60
2019-05-11T01:20:53.237Z,11.70
2019-05-11T01:23:23.801Z,14.53
2019-05-11T01:25:54.431Z,12.37
2019-05-11T01:28:25.026Z,12.57
2019-05-11T01:30:55.768Z,12.27
2019-05-11T01:33:26.500Z,18.40
2019-05-11T01:35:57.091Z,15.27
2019-05-11T01:38:27.714Z,12.90
2019-05-11T01:40:59.323Z,17.83
2019-05-11T01:43:29.993Z,12.23
2019-05-11T01:46:00.732Z,15.20
2019-05-11T01:48:32.726Z,15.57
2019-05-11T01:51:03.330Z,15.63
2019-05-11T01:53:33.921Z,15.87
2019-05-11T01:56:04.536Z,21.47
2019-05-11T01:58:35.171Z,13.40
2019-05-11T02:01:05.787Z,14.83
2019-05-11T02:03:36.580Z,13.83
2019-05-11T02:06:07.463Z,14.60
2019-05-11T02:08:38.122Z,14.20
2019-05-11T02:11:15.777Z,14.73
2019-05-11T02:13:41.058Z,14.13
2019-05-11T02:16:11.750Z,16.97
2019-05-11T02:18:42.460Z,22.60
2019-05-11T02:21:13.072Z,15.83
2019-05-11T02:23:43.732Z,15.77
2019-05-11T02:26:14.444Z,16.90
2019-05-11T02:28:46.469Z,16.73
2019-05-11T02:31:17.146Z,18.70
2019-05-11T02:33:47.720Z,21.40
2019-05-11T02:36:18.331Z,15.63
2019-05-11T02:38:49.037Z,17.47
2019-05-11T02:41:34.623Z,22.53
2019-05-11T02:43:52.108Z,21.93
2019-05-11T02:46:22.622Z,19.27
2019-05-11T02:48:53.269Z,17.93
2019-05-11T02:51:24.852Z,16.37
2019-05-11T02:53:56.558Z,15.53
2019-05-11T02:56:27.183Z,16.67
2019-05-11T02:58:57.885Z,14.83
2019-05-11T03:01:30.069Z,13.77
2019-05-11T03:04:00.789Z,14.13
2019-05-11T03:06:31.392Z,16.20
2019-05-11T03:09:02.010Z,13.90
2019-05-11T03:11:32.626Z,11.60
2019-05-11T03:14:03.217Z,13.70
2019-05-11T03:16:33.796Z,12.10
2019-05-11T03:19:04.574Z,12.90
2019-05-11T03:21:35.289Z,7.73
2019-05-11T03:24:05.990Z,9.37
2019-05-11T03:26:39.180Z,35.90
2019-05-11T03:29:11.376Z,11.67
2019-05-11T03:31:42.081Z,9.13
2019-05-11T03:34:12.664Z,8.57
2019-05-11T03:36:44.826Z,8.27
2019-05-11T03:39:15.559Z,11.03
2019-05-11T03:41:46.136Z,9.30
2019-05-11T03:44:16.828Z,9.20
2019-05-11T03:46:47.534Z,6.50
2019-05-11T03:49:18.235Z,8.87
2019-05-11T03:51:48.922Z,6.77
2019-05-11T03:54:19.645Z,6.43
2019-05-11T03:56:50.375Z,9.37
2019-05-11T03:59:20.962Z,9.60
2019-05-11T04:01:51.561Z,11.03
2019-05-11T04:04:22.208Z,6.27
2019-05-11T04:06:52.919Z,7.13
2019-05-11T04:09:23.526Z,5.63
2019-05-11T04:11:54.083Z,8.27
2019-05-11T04:14:24.812Z,10.50
2019-05-11T04:19:55.439Z,10.30
2019-05-11T04:22:26.214Z,11.13
2019-05-11T04:24:56.960Z,10.03
2019-05-11T04:27:27.581Z,11.63
2019-05-11T04:29:58.196Z,9.17
2019-05-11T04:32:28.863Z,9.87
2019-05-11T04:34:59.477Z,10.27
2019-05-11T04:37:30.080Z,11.37
2019-05-11T04:40:00.615Z,8.80
2019-05-11T04:42:31.345Z,12.00
2019-05-11T04:45:01.965Z,8.83
2019-05-11T04:47:32.579Z,11.87
2019-05-11T04:50:04.266Z,11.03
2019-05-11T04:52:34.996Z,9.17
2019-05-11T04:55:06.252Z,10.63
2019-05-11T04:57:37.590Z,9.67
2019-05-11T05:00:08.837Z,11.80
2019-05-11T05:02:42.397Z,11.73
2019-05-11T05:05:13.381Z,17.53
2019-05-11T05:07:48.856Z,10.73
2019-05-11T05:10:19.911Z,9.43
2019-05-11T05:12:51.469Z,10.17
2019-05-11T05:15:21.187Z,9.43
2019-05-11T05:17:51.908Z,16.47
2019-05-11T05:20:22.538Z,11.57
2019-05-11T05:22:53.191Z,12.23
2019-05-11T05:25:23.733Z,12.30
2019-05-11T05:27:54.387Z,14.83
2019-05-11T05:30:25.025Z,12.23
2019-05-11T05:32:55.648Z,10.60
2019-05-11T05:35:26.377Z,16.80
2019-05-11T05:37:56.971Z,19.13
2019-05-11T05:40:27.614Z,15.10
2019-05-11T05:42:58.194Z,15.67
2019-05-11T05:45:28.816Z,11.53
2019-05-11T05:47:59.448Z,10.37
2019-05-11T05:50:30.074Z,11.67
2019-05-11T05:53:00.882Z,8.40
2019-05-11T05:55:31.421Z,8.90
2019-05-11T05:58:02.029Z,10.43
2019-05-11T06:00:32.631Z,11.03
2019-05-11T06:03:03.232Z,12.60
2019-05-11T06:05:34.087Z,13.07
2019-05-11T06:08:04.699Z,17.10
2019-05-11T06:10:35.341Z,15.93
2019-05-11T06:13:06.126Z,11.90
2019-05-11T06:15:41.564Z,19.60
2019-05-11T06:18:12.313Z,10.00
2019-05-11T06:20:42.897Z,15.90
2019-05-11T06:23:13.596Z,16.10
2019-05-11T06:25:44.216Z,14.97
2019-05-11T06:28:14.795Z,9.47
2019-05-11T06:30:47.025Z,15.30
2019-05-11T06:33:17.746Z,18.17
2019-05-11T06:35:48.367Z,14.27
2019-05-11T06:38:18.961Z,16.43
2019-05-11T06:40:49.575Z,9.87
2019-05-11T06:43:20.211Z,12.00
2019-05-11T06:45:50.840Z,10.97
2019-05-11T06:48:22.022Z,5.97
2019-05-11T06:50:52.689Z,8.57
2019-05-11T06:53:23.411Z,6.47
2019-05-11T06:55:55.122Z,11.73
2019-05-11T06:58:27.312Z,7.70
2019-05-11T07:00:57.899Z,4.33
2019-05-11T07:03:28.736Z,4.47
2019-05-11T07:05:59.357Z,2.93
2019-05-11T07:08:29.989Z,3.13
2019-05-11T07:11:00.606Z,6.80
2019-05-11T07:13:31.136Z,3.73
2019-05-11T07:16:01.764Z,4.37
2019-05-11T07:18:32.390Z,4.40
2019-05-11T07:21:03.078Z,3.10
2019-05-11T07:23:44.103Z,5.20
2019-05-11T07:26:25.669Z,1.70
2019-05-11T07:28:58.006Z,2.63
2019-05-11T07:31:28.643Z,1.90
2019-05-11T07:33:59.270Z,4.57
2019-05-11T07:36:32.442Z,5.37
2019-05-11T07:39:03.047Z,5.87
2019-05-11T07:41:38.744Z,3.80
2019-05-11T07:44:10.103Z,2.93
2019-05-11T07:46:40.861Z,3.30
2019-05-11T07:49:13.289Z,7.43
2019-05-11T07:51:48.002Z,5.90
2019-05-11T07:54:18.741Z,4.80
2019-05-11T07:56:49.526Z,6.83
2019-05-11T07:59:21.960Z,2.83
2019-05-11T08:01:52.761Z,2.60
2019-05-11T08:04:23.686Z,2.43
2019-05-11T08:06:54.452Z,3.47
2019-05-11T08:09:25.075Z,2.73
2019-05-11T08:11:58.242Z,4.80
2019-05-11T08:14:29.659Z,7.33
2019-05-11T08:17:02.029Z,2.90
2019-05-11T08:19:32.662Z,3.90
2019-05-11T08:22:03.255Z,3.10
2019-05-11T08:24:34.400Z,3.20
2019-05-11T08:27:08.236Z,4.63
2019-05-11T08:29:43.873Z,7.20
2019-05-11T08:32:14.509Z,8.53
2019-05-11T08:34:45.112Z,2.47
2019-05-11T08:37:15.727Z,4.50
2019-05-11T08:39:48.185Z,2.67
2019-05-11T08:42:18.642Z,3.23
2019-05-11T08:44:49.303Z,3.67
2019-05-11T08:47:20.505Z,3.27
2019-05-11T08:49:51.214Z,3.70
2019-05-11T08:52:21.851Z,3.87
2019-05-11T08:54:52.474Z,3.93
2019-05-11T08:57:23.059Z,4.17
2019-05-11T08:59:53.848Z,3.10
2019-05-11T09:02:24.446Z,6.00
2019-05-11T09:04:55.071Z,2.67
2019-05-11T09:07:27.812Z,7.97
2019-05-11T09:09:58.735Z,6.97
2019-05-11T09:12:29.483Z,8.47
2019-05-11T09:15:00.156Z,3.87
2019-05-11T09:17:30.843Z,4.53
2019-05-11T09:20:01.571Z,3.90
2019-05-11T09:22:32.162Z,7.37
2019-05-11T09:25:02.753Z,3.50
2019-05-11T09:27:37.646Z,4.30
2019-05-11T09:30:08.652Z,5.43
2019-05-11T09:32:39.292Z,7.43
2019-05-11T09:35:10.259Z,5.00
2019-05-11T09:37:40.855Z,3.63
2019-05-11T09:40:11.737Z,6.77
2019-05-11T09:42:42.343Z,6.70
2019-05-11T09:45:13.137Z,14.10
2019-05-11T09:47:43.762Z,4.73
2019-05-11T09:50:14.724Z,3.40
2019-05-11T09:52:45.313Z,4.27
2019-05-11T09:55:16.007Z,5.30
2019-05-11T09:57:48.694Z,4.03
2019-05-11T10:00:19.501Z,4.23
2019-05-11T10:02:50.036Z,6.83
2019-05-11T10:05:20.664Z,4.80
2019-05-11T10:07:51.355Z,4.30
2019-05-11T10:10:22.197Z,3.47
2019-05-11T10:12:53.071Z,5.10
2019-05-11T10:15:23.709Z,6.43
2019-05-11T10:17:54.405Z,6.13
2019-05-11T10:20:25.008Z,6.33
2019-05-11T10:22:57.946Z,5.23
2019-05-11T10:25:28.977Z,4.77
2019-05-11T10:27:59.632Z,6.13
2019-05-11T10:30:30.315Z,7.00
2019-05-11T10:33:02.427Z,5.10
2019-05-11T10:35:37.692Z,5.57
2019-05-11T10:38:09.016Z,8.00
2019-05-11T10:40:40.027Z,8.07
2019-05-11T10:43:10.730Z,6.03
2019-05-11T10:45:41.336Z,11.37
2019-05-11T10:48:11.947Z,8.57
2019-05-11T10:50:42.595Z,11.60
2019-05-11T10:53:13.277Z,7.27
2019-05-11T10:55:43.984Z,13.20
2019-05-11T10:58:14.592Z,6.90
2019-05-11T11:00:45.272Z,11.67
2019-05-11T11:03:17.903Z,9.17
2019-05-11T11:05:48.877Z,13.93
2019-05-11T11:08:19.544Z,9.23
2019-05-11T11:10:50.132Z,17.70
2019-05-11T11:13:20.755Z,12.23
2019-05-11T11:15:51.393Z,10.40
2019-05-11T11:18:23.494Z,11.57
2019-05-11T11:20:54.096Z,15.93
2019-05-11T11:23:25.177Z,11.47
2019-05-11T11:25:58.584Z,12.63
2019-05-11T11:28:29.521Z,9.93
2019-05-11T11:31:00.260Z,11.93
2019-05-11T11:33:31.355Z,8.63
2019-05-11T11:36:02.003Z,9.77
2019-05-11T11:38:32.865Z,13.33
2019-05-11T11:41:03.651Z,9.70
2019-05-11T11:43:34.285Z,12.73
2019-05-11T11:46:08.411Z,10.07
2019-05-11T11:48:39.226Z,8.20
2019-05-11T11:51:09.839Z,8.90
2019-05-11T11:53:40.483Z,11.23
2019-05-11T11:56:11.217Z,12.53
2019-05-11T11:58:42.244Z,9.00
2019-05-11T12:01:12.892Z,15.30
2019-05-11T12:03:43.475Z,15.53
2019-05-11T12:06:14.476Z,11.77
2019-05-11T12:08:45.079Z,11.03
2019-05-11T12:11:15.736Z,11.57
2019-05-11T12:13:47.541Z,13.07
2019-05-11T12:16:18.536Z,15.77
2019-05-11T12:18:49.209Z,18.13
2019-05-11T12:21:19.899Z,18.50
2019-05-11T12:23:50.731Z,15.20
2019-05-11T12:26:21.459Z,18.67
2019-05-11T12:28:52.156Z,20.57
2019-05-11T12:31:22.745Z,19.73
2019-05-11T12:33:53.360Z,15.30
2019-05-11T12:36:23.943Z,14.90
2019-05-11T12:38:54.490Z,17.07
2019-05-11T12:41:25.101Z,19.80
2019-05-11T12:43:57.727Z,22.90
2019-05-11T12:46:27.992Z,22.50
2019-05-11T12:48:59.274Z,17.53
2019-05-11T12:51:29.932Z,16.10
2019-05-11T12:54:01.309Z,17.70
2019-05-11T12:56:32.542Z,20.60
2019-05-11T12:59:03.197Z,17.10
2019-05-11T13:01:33.901Z,16.97
2019-05-11T13:04:05.587Z,18.23
2019-05-11T13:06:38.311Z,18.83
2019-05-11T13:09:08.761Z,16.00
2019-05-11T13:11:39.408Z,17.20
2019-05-11T13:14:10.023Z,18.73
2019-05-11T13:16:41.056Z,19.63
2019-05-11T13:19:11.653Z,19.17
2019-05-11T13:21:42.252Z,19.60
2019-05-11T13:24:13.680Z,20.47
2019-05-11T13:26:48.553Z,20.10
2019-05-11T13:29:19.443Z,18.53
2019-05-11T13:31:50.860Z,18.40
2019-05-11T13:34:21.473Z,16.97
2019-05-11T13:36:52.172Z,14.70
2019-05-11T13:39:22.966Z,19.80
2019-05-11T13:41:53.655Z,17.33
2019-05-11T13:44:24.367Z,16.23
2019-05-11T13:46:55.083Z,14.43
2019-05-11T13:49:28.187Z,13.93
2019-05-11T13:51:58.694Z,14.30
2019-05-11T13:54:29.862Z,16.40
2019-05-11T13:57:00.805Z,11.57
2019-05-11T13:59:31.421Z,12.53
2019-05-11T14:02:02.066Z,12.07
2019-05-11T14:04:35.415Z,15.13
2019-05-11T14:07:08.066Z,14.57
2019-05-11T14:09:38.465Z,14.73
2019-05-11T14:12:09.121Z,16.63
2019-05-11T14:14:39.717Z,13.67
2019-05-11T14:17:11.402Z,14.70
2019-05-11T14:19:42.251Z,15.47
2019-05-11T14:22:13.018Z,12.47
2019-05-11T14:24:45.035Z,15.73
2019-05-11T14:27:17.810Z,16.90
2019-05-11T14:29:48.792Z,15.17
2019-05-11T14:32:20.257Z,13.77
2019-05-11T14:34:50.869Z,13.57
2019-05-11T14:37:21.522Z,16.77
2019-05-11T14:39:52.128Z,14.67
2019-05-11T14:42:22.782Z,17.33
2019-05-11T14:44:56.097Z,18.10
2019-05-11T14:47:28.291Z,17.47
2019-05-11T14:50:00.483Z,14.83
2019-05-11T14:52:33.449Z,16.13
2019-05-11T14:55:04.834Z,17.43
2019-05-11T14:57:35.604Z,17.30
2019-05-11T15:00:08.368Z,18.43
2019-05-11T15:02:49.638Z,14.37
2019-05-11T15:05:21.692Z,20.20
2019-05-11T15:07:53.132Z,16.43
2019-05-11T15:10:24.871Z,16.30
2019-05-11T15:12:59.170Z,20.10
2019-05-11T15:15:30.087Z,17.53
2019-05-11T15:18:00.604Z,19.07
2019-05-11T15:20:31.343Z,18.27
2019-05-11T15:23:04.750Z,16.53
2019-05-11T15:25:35.356Z,14.33
2019-05-11T15:28:06.014Z,13.20
2019-05-11T15:30:38.041Z,11.83
2019-05-11T15:33:10.182Z,13.13
2019-05-11T15:35:42.046Z,12.87
2019-05-11T15:38:13.872Z,15.53
2019-05-11T15:40:45.355Z,13.80
2019-05-11T15:43:17.988Z,16.47
2019-05-11T15:45:48.874Z,12.53
2019-05-11T15:48:19.512Z,14.40
2019-05-11T15:50:50.078Z,15.10
2019-05-11T15:53:21.893Z,10.20
2019-05-11T15:55:55.151Z,9.80
2019-05-11T15:58:25.814Z,16.63
2019-05-11T16:00:58.851Z,12.33
2019-05-11T16:03:31.527Z,11.20
2019-05-11T16:06:03.526Z,10.77
2019-05-11T16:08:34.086Z,11.67
2019-05-11T16:11:08.187Z,10.80
2019-05-11T16:13:38.627Z,14.30
2019-05-11T16:16:09.866Z,13.73
2019-05-11T16:18:40.576Z,14.57
2019-05-11T16:21:12.553Z,11.27
2019-05-11T16:23:45.332Z,13.33
2019-05-11T16:26:17.582Z,14.37
2019-05-11T16:28:48.318Z,12.30
2019-05-11T16:31:18.971Z,13.20
2019-05-11T16:33:49.599Z,14.10
2019-05-11T16:36:21.517Z,17.43
2019-05-11T16:38:52.875Z,14.37
2019-05-11T16:41:23.511Z,15.40
2019-05-11T16:43:54.282Z,13.40
2019-05-11T16:46:24.921Z,14.57
2019-05-11T16:48:57.914Z,19.17
2019-05-11T16:51:29.154Z,14.27
2019-05-11T16:53:59.948Z,15.33
2019-05-11T16:56:33.258Z,13.00
2019-05-11T16:59:03.940Z,11.63
2019-05-11T17:01:37.715Z,14.87
2019-05-11T17:04:10.706Z,13.37
2019-05-11T17:06:43.271Z,14.53
2019-05-11T17:09:14.605Z,11.97
2019-05-11T17:11:48.799Z,17.93
2019-05-11T17:14:19.129Z,10.80
2019-05-11T17:16:50.448Z,15.97
2019-05-11T17:19:21.744Z,16.23
2019-05-11T17:21:52.357Z,16.50
2019-05-11T17:24:23.078Z,15.10
2019-05-11T17:26:54.119Z,16.97
2019-05-11T17:29:24.778Z,17.10
2019-05-11T17:31:57.817Z,16.83
2019-05-11T17:34:28.549Z,14.40
2019-05-11T17:37:00.185Z,17.03
2019-05-11T17:39:30.840Z,15.37
2019-05-11T17:42:01.456Z,16.87
2019-05-11T17:44:32.217Z,15.47
2019-05-11T17:47:02.913Z,14.20
2019-05-11T17:49:33.601Z,13.80
2019-05-11T17:52:04.226Z,13.80
2019-05-11T17:54:34.886Z,15.07
2019-05-11T17:57:05.715Z,14.30
2019-05-11T17:59:38.495Z,14.17
2019-05-11T18:02:09.490Z,14.27
2019-05-11T18:04:40.269Z,12.47
2019-05-11T18:07:24.411Z,12.67
2019-05-11T18:09:43.397Z,13.43
2019-05-11T18:12:17.678Z,12.60
2019-05-11T18:14:48.497Z,14.43
2019-05-11T18:17:20.829Z,18.90
2019-05-11T18:19:51.592Z,18.50
2019-05-11T18:22:22.287Z,18.13
2019-05-11T18:24:54.446Z,17.93
2019-05-11T18:27:27.868Z,18.33
2019-05-11T18:29:58.742Z,21.77
2019-05-11T18:32:29.342Z,27.67
2019-05-11T18:34:59.940Z,21.77
2019-05-11T18:37:30.514Z,23.77
2019-05-11T18:40:01.435Z,24.83
2019-05-11T18:42:32.121Z,24.30
2019-05-11T18:45:02.843Z,32.37
2019-05-11T18:47:33.569Z,24.37
2019-05-11T18:50:06.146Z,27.80
2019-05-11T18:52:36.999Z,21.87
2019-05-11T18:55:08.572Z,25.40
2019-05-11T18:57:39.287Z,24.20
2019-05-11T19:00:10.507Z,22.83
2019-05-11T19:02:42.665Z,18.87
2019-05-11T19:05:13.567Z,19.73
2019-05-11T19:07:44.228Z,23.07
2019-05-11T19:10:14.950Z,22.33
2019-05-11T19:12:45.559Z,24.83
2019-05-11T19:15:18.579Z,24.40
2019-05-11T19:17:49.221Z,21.77
2019-05-11T19:20:19.929Z,21.70
2019-05-11T19:22:50.508Z,26.00
2019-05-11T19:25:21.237Z,24.30
2019-05-11T19:27:52.128Z,21.23
2019-05-11T19:30:22.825Z,20.67
2019-05-11T19:32:53.459Z,21.10
2019-05-11T19:35:24.283Z,21.90
2019-05-11T19:37:54.913Z,19.30
2019-05-11T19:40:26.038Z,20.80
2019-05-11T19:43:02.043Z,21.40
2019-05-11T19:45:32.643Z,19.90
2019-05-11T19:48:03.356Z,20.63
2019-05-11T19:50:34.112Z,22.80
2019-05-11T19:53:04.846Z,22.13
2019-05-11T19:55:35.987Z,21.63
2019-05-11T19:58:06.734Z,22.70
2019-05-11T20:00:38.057Z,20.93
2019-05-11T20:03:09.395Z,20.27
2019-05-11T20:05:40.205Z,22.77
2019-05-11T20:08:10.876Z,20.93
2019-05-11T20:10:41.533Z,19.00
2019-05-11T20:13:12.189Z,17.43
2019-05-11T20:15:42.824Z,19.23
2019-05-11T20:18:15.073Z,18.90
2019-05-11T20:20:48.506Z,18.60
2019-05-11T20:23:20.564Z,15.03
2019-05-11T20:25:51.108Z,16.77
2019-05-11T20:28:21.720Z,15.23
2019-05-11T20:30:52.448Z,15.67
2019-05-11T20:33:23.040Z,14.47
2019-05-11T20:35:53.734Z,13.63
2019-05-11T20:38:24.253Z,15.23
2019-05-11T20:40:54.893Z,17.73
2019-05-11T20:43:27.969Z,15.47
2019-05-11T20:45:59.896Z,14.23
2019-05-11T20:48:30.596Z,14.40
2019-05-11T20:51:01.224Z,15.33
2019-05-11T20:53:31.889Z,15.67
2019-05-11T20:56:02.589Z,17.33
2019-05-11T20:58:34.917Z,15.63
2019-05-11T21:01:07.201Z,13.27
2019-05-11T21:03:38.145Z,13.87
2019-05-11T21:06:08.754Z,15.13
2019-05-11T21:08:39.385Z,14.73
2019-05-11T21:11:10.773Z,17.57
2019-05-11T21:13:42.317Z,16.30
2019-05-11T21:16:12.975Z,17.07
2019-05-11T21:18:43.693Z,15.93
2019-05-11T21:21:14.459Z,17.17
2019-05-11T21:23:45.116Z,16.70
2019-05-11T21:26:16.083Z,14.40
2019-05-11T21:28:48.667Z,15.47
2019-05-11T21:31:24.843Z,19.70
2019-05-11T21:33:55.575Z,16.47
2019-05-11T21:36:28.350Z,15.27
2019-05-11T21:38:59.183Z,17.40
2019-05-11T21:41:31.082Z,17.77
2019-05-11T21:44:01.853Z,16.73
2019-05-11T21:46:32.457Z,17.90
2019-05-11T21:49:03.177Z,19.30
2019-05-11T21:51:33.800Z,22.93
2019-05-11T21:54:04.404Z,22.40
2019-05-11T21:56:42.466Z,22.53
2019-05-11T21:59:13.179Z,25.20
2019-05-11T22:01:44.282Z,26.57
2019-05-11T22:04:14.957Z,25.37
2019-05-11T22:06:48.216Z,25.67
2019-05-11T22:09:18.535Z,23.20
2019-05-11T22:11:49.380Z,25.67
2019-05-11T22:14:20.973Z,23.43
2019-05-11T22:16:51.713Z,24.47
2019-05-11T22:19:22.720Z,22.63
2019-05-11T22:21:53.379Z,26.37
2019-05-11T22:24:29.185Z,28.93
2019-05-11T22:27:00.393Z,29.83
2019-05-11T22:29:31.225Z,30.50
2019-05-11T22:32:01.982Z,40.70
2019-05-11T22:34:34.083Z,34.63
2019-05-11T22:37:04.810Z,38.93
2019-05-11T22:39:37.678Z,37.00
2019-05-11T22:42:11.261Z,41.53
2019-05-11T22:44:42.040Z,38.07
2019-05-11T22:47:14.351Z,54.13
2019-05-11T22:49:49.602Z,39.03
2019-05-11T22:52:33.019Z,47.40
2019-05-11T22:54:53.156Z,54.17
2019-05-11T22:57:23.890Z,59.23
2019-05-11T22:59:54.662Z,65.40
2019-05-11T23:02:25.743Z,62.83
2019-05-11T23:04:57.921Z,61.30
2019-05-11T23:07:28.850Z,69.70
2019-05-11T23:10:00.613Z,63.67
2019-05-11T23:12:32.182Z,64.57
2019-05-11T23:15:08.064Z,74.00
2019-05-11T23:17:41.479Z,77.57
2019-05-11T23:20:12.379Z,80.90
2019-05-11T23:22:54.275Z,82.90
2019-05-11T23:25:18.465Z,83.23
2019-05-11T23:27:51.047Z,94.57
2019-05-11T23:30:22.175Z,91.97
2019-05-11T23:32:52.778Z,90.50
2019-05-11T23:35:23.409Z,80.00
2019-05-11T23:37:54.016Z,76.63
2019-05-11T23:40:24.710Z,88.60
2019-05-11T23:42:57.728Z,85.23
2019-05-11T23:45:28.237Z,82.70
2019-05-11T23:47:59.069Z,69.67
2019-05-11T23:50:31.429Z,89.03
2019-05-11T23:53:06.333Z,93.53
2019-05-11T23:55:34.959Z,97.13
2019-05-11T23:58:08.003Z,99.53
